sensor_id;sensor_type;location;lat;lon;timestamp;P1;durP1;ratioP1;P2;durP2;ratioP2
59390;SDS011;53405;57.012;40.984;2022-07-19T00:00:36;5.22;;;2.55;;
59390;SDS011;53405;57.012;40.984;2022-07-19T00:03:03;4.22;;;2.33;;
59390;SDS011;53405;57.012;40.984;2022-07-19T00:05:33;5.47;;;2.65;;
59390;SDS011;53405;57.012;40.984;2022-07-19T00:08:00;5.18;;;2.50;;
59390;SDS011;53405;57.012;40.984;2022-07-19T00:10:28;6.63;;;2.80;;
59390;SDS011;53405;57.012;40.984;2022-07-19T00:12:56;6.28;;;2.60;;
59390;SDS011;53405;57.012;40.984;2022-07-19T00:15:23;5.63;;;2.65;;
59390;SDS011;53405;57.012;40.984;2022-07-19T00:17:51;8.98;;;3.67;;
59390;SDS011;53405;57.012;40.984;2022-07-19T00:20:19;5.43;;;3.03;;
59390;SDS011;53405;57.012;40.984;2022-07-19T00:22:48;5.35;;;3.00;;
59390;SDS011;53405;57.012;40.984;2022-07-19T00:25:16;5.70;;;3.00;;
59390;SDS011;53405;57.012;40.984;2022-07-19T00:27:43;5.57;;;3.08;;
59390;SDS011;53405;57.012;40.984;2022-07-19T00:30:12;6.00;;;2.75;;
59390;SDS011;53405;57.012;40.984;2022-07-19T00:32:39;4.97;;;3.10;;
59390;SDS011;53405;57.012;40.984;2022-07-19T00:35:07;7.78;;;3.30;;
59390;SDS011;53405;57.012;40.984;2022-07-19T00:37:37;6.65;;;3.00;;
59390;SDS011;53405;57.012;40.984;2022-07-19T00:40:09;5.45;;;3.22;;
59390;SDS011;53405;57.012;40.984;2022-07-19T00:42:37;7.28;;;2.97;;
59390;SDS011;53405;57.012;40.984;2022-07-19T00:45:05;5.90;;;3.05;;
59390;SDS011;53405;57.012;40.984;2022-07-19T00:47:37;7.22;;;3.03;;
59390;SDS011;53405;57.012;40.984;2022-07-19T00:50:05;6.72;;;3.10;;
59390;SDS011;53405;57.012;40.984;2022-07-19T00:52:33;8.30;;;3.03;;
59390;SDS011;53405;57.012;40.984;2022-07-19T00:55:02;5.82;;;3.03;;
59390;SDS011;53405;57.012;40.984;2022-07-19T00:57:30;5.40;;;3.08;;
59390;SDS011;53405;57.012;40.984;2022-07-19T00:59:58;5.07;;;2.63;;
59390;SDS011;53405;57.012;40.984;2022-07-19T01:02:26;6.18;;;2.80;;
59390;SDS011;53405;57.012;40.984;2022-07-19T01:04:58;6.90;;;2.92;;
59390;SDS011;53405;57.012;40.984;2022-07-19T01:07:34;5.72;;;2.78;;
59390;SDS011;53405;57.012;40.984;2022-07-19T01:10:04;7.47;;;2.72;;
59390;SDS011;53405;57.012;40.984;2022-07-19T01:15:01;5.78;;;2.88;;
59390;SDS011;53405;57.012;40.984;2022-07-19T01:17:38;8.07;;;2.60;;
59390;SDS011;53405;57.012;40.984;2022-07-19T01:20:06;4.63;;;2.45;;
59390;SDS011;53405;57.012;40.984;2022-07-19T01:22:34;5.13;;;2.50;;
59390;SDS011;53405;57.012;40.984;2022-07-19T01:25:02;5.93;;;3.30;;
59390;SDS011;53405;57.012;40.984;2022-07-19T01:27:30;5.97;;;2.50;;
59390;SDS011;53405;57.012;40.984;2022-07-19T01:29:57;4.05;;;2.30;;
59390;SDS011;53405;57.012;40.984;2022-07-19T01:32:24;5.30;;;2.20;;
59390;SDS011;53405;57.012;40.984;2022-07-19T01:34:52;4.60;;;2.33;;
59390;SDS011;53405;57.012;40.984;2022-07-19T01:37:23;4.40;;;2.00;;
59390;SDS011;53405;57.012;40.984;2022-07-19T01:39:51;5.03;;;2.10;;
59390;SDS011;53405;57.012;40.984;2022-07-19T01:42:18;4.25;;;2.00;;
59390;SDS011;53405;57.012;40.984;2022-07-19T01:44:45;4.97;;;2.30;;
59390;SDS011;53405;57.012;40.984;2022-07-19T01:47:13;4.32;;;2.00;;
59390;SDS011;53405;57.012;40.984;2022-07-19T01:49:41;3.60;;;2.08;;
59390;SDS011;53405;57.012;40.984;2022-07-19T01:52:08;4.07;;;2.10;;
59390;SDS011;53405;57.012;40.984;2022-07-19T01:54:36;4.53;;;2.22;;
59390;SDS011;53405;57.012;40.984;2022-07-19T01:57:03;3.25;;;1.90;;
59390;SDS011;53405;57.012;40.984;2022-07-19T01:59:35;5.22;;;1.95;;
59390;SDS011;53405;57.012;40.984;2022-07-19T02:02:04;4.53;;;2.00;;
59390;SDS011;53405;57.012;40.984;2022-07-19T02:04:31;3.22;;;1.77;;
59390;SDS011;53405;57.012;40.984;2022-07-19T02:06:59;9.27;;;2.38;;
59390;SDS011;53405;57.012;40.984;2022-07-19T02:09:27;4.35;;;1.80;;
59390;SDS011;53405;57.012;40.984;2022-07-19T02:11:54;3.72;;;2.00;;
59390;SDS011;53405;57.012;40.984;2022-07-19T02:14:21;4.60;;;2.10;;
59390;SDS011;53405;57.012;40.984;2022-07-19T02:16:49;3.55;;;1.70;;
59390;SDS011;53405;57.012;40.984;2022-07-19T02:19:17;3.50;;;1.80;;
59390;SDS011;53405;57.012;40.984;2022-07-19T02:21:45;4.40;;;2.13;;
59390;SDS011;53405;57.012;40.984;2022-07-19T02:24:13;4.40;;;1.95;;
59390;SDS011;53405;57.012;40.984;2022-07-19T02:26:40;4.28;;;2.00;;
59390;SDS011;53405;57.012;40.984;2022-07-19T02:29:08;3.97;;;2.03;;
59390;SDS011;53405;57.012;40.984;2022-07-19T02:31:36;4.43;;;2.05;;
59390;SDS011;53405;57.012;40.984;2022-07-19T02:34:04;4.45;;;2.28;;
59390;SDS011;53405;57.012;40.984;2022-07-19T02:36:32;4.82;;;2.50;;
59390;SDS011;53405;57.012;40.984;2022-07-19T02:39:00;4.45;;;2.28;;
59390;SDS011;53405;57.012;40.984;2022-07-19T02:41:27;5.32;;;2.60;;
59390;SDS011;53405;57.012;40.984;2022-07-19T02:43:55;4.68;;;2.40;;
59390;SDS011;53405;57.012;40.984;2022-07-19T02:46:22;3.42;;;1.85;;
59390;SDS011;53405;57.012;40.984;2022-07-19T02:48:49;4.95;;;2.20;;
59390;SDS011;53405;57.012;40.984;2022-07-19T02:51:18;6.07;;;2.40;;
59390;SDS011;53405;57.012;40.984;2022-07-19T02:53:45;3.47;;;1.90;;
59390;SDS011;53405;57.012;40.984;2022-07-19T02:56:13;4.10;;;2.15;;
59390;SDS011;53405;57.012;40.984;2022-07-19T02:58:41;4.43;;;2.30;;
59390;SDS011;53405;57.012;40.984;2022-07-19T03:01:11;3.72;;;2.13;;
59390;SDS011;53405;57.012;40.984;2022-07-19T03:03:39;4.28;;;2.13;;
59390;SDS011;53405;57.012;40.984;2022-07-19T03:06:17;5.53;;;1.90;;
59390;SDS011;53405;57.012;40.984;2022-07-19T03:08:45;5.38;;;2.20;;
59390;SDS011;53405;57.012;40.984;2022-07-19T03:11:13;3.92;;;2.20;;
59390;SDS011;53405;57.012;40.984;2022-07-19T03:13:41;7.55;;;2.60;;
59390;SDS011;53405;57.012;40.984;2022-07-19T03:16:09;5.20;;;2.38;;
59390;SDS011;53405;57.012;40.984;2022-07-19T03:18:37;5.03;;;2.20;;
59390;SDS011;53405;57.012;40.984;2022-07-19T03:21:05;3.72;;;2.08;;
59390;SDS011;53405;57.012;40.984;2022-07-19T03:23:33;4.87;;;2.43;;
59390;SDS011;53405;57.012;40.984;2022-07-19T03:26:02;5.22;;;2.50;;
59390;SDS011;53405;57.012;40.984;2022-07-19T03:28:31;4.45;;;2.00;;
59390;SDS011;53405;57.012;40.984;2022-07-19T03:31:05;5.75;;;2.30;;
59390;SDS011;53405;57.012;40.984;2022-07-19T03:33:33;4.80;;;2.15;;
59390;SDS011;53405;57.012;40.984;2022-07-19T03:36:00;5.38;;;2.10;;
59390;SDS011;53405;57.012;40.984;2022-07-19T03:38:34;4.72;;;2.03;;
59390;SDS011;53405;57.012;40.984;2022-07-19T03:41:03;3.78;;;2.10;;
59390;SDS011;53405;57.012;40.984;2022-07-19T03:43:30;3.75;;;1.90;;
59390;SDS011;53405;57.012;40.984;2022-07-19T03:46:05;3.88;;;1.92;;
59390;SDS011;53405;57.012;40.984;2022-07-19T03:48:32;5.30;;;2.28;;
59390;SDS011;53405;57.012;40.984;2022-07-19T03:51:00;4.95;;;2.33;;
59390;SDS011;53405;57.012;40.984;2022-07-19T03:53:28;3.95;;;1.80;;
59390;SDS011;53405;57.012;40.984;2022-07-19T03:55:55;3.75;;;1.70;;
59390;SDS011;53405;57.012;40.984;2022-07-19T03:58:25;4.22;;;1.95;;
59390;SDS011;53405;57.012;40.984;2022-07-19T04:00:53;2.67;;;1.50;;
59390;SDS011;53405;57.012;40.984;2022-07-19T04:03:21;3.47;;;1.60;;
59390;SDS011;53405;57.012;40.984;2022-07-19T04:05:49;3.35;;;1.60;;
59390;SDS011;53405;57.012;40.984;2022-07-19T04:08:16;2.78;;;1.63;;
59390;SDS011;53405;57.012;40.984;2022-07-19T04:10:44;3.10;;;1.27;;
59390;SDS011;53405;57.012;40.984;2022-07-19T04:13:11;3.95;;;1.45;;
59390;SDS011;53405;57.012;40.984;2022-07-19T04:15:39;2.33;;;1.52;;
59390;SDS011;53405;57.012;40.984;2022-07-19T04:18:09;5.40;;;1.50;;
59390;SDS011;53405;57.012;40.984;2022-07-19T04:20:38;2.88;;;1.33;;
59390;SDS011;53405;57.012;40.984;2022-07-19T04:23:05;6.43;;;1.70;;
59390;SDS011;53405;57.012;40.984;2022-07-19T04:25:32;3.97;;;1.70;;
59390;SDS011;53405;57.012;40.984;2022-07-19T04:28:00;3.60;;;1.50;;
59390;SDS011;53405;57.012;40.984;2022-07-19T04:30:29;4.27;;;1.87;;
59390;SDS011;53405;57.012;40.984;2022-07-19T04:32:57;5.70;;;2.10;;
59390;SDS011;53405;57.012;40.984;2022-07-19T04:35:27;4.22;;;2.08;;
59390;SDS011;53405;57.012;40.984;2022-07-19T04:37:54;5.20;;;2.53;;
59390;SDS011;53405;57.012;40.984;2022-07-19T04:40:21;6.63;;;3.00;;
59390;SDS011;53405;57.012;40.984;2022-07-19T04:42:49;5.93;;;3.45;;
59390;SDS011;53405;57.012;40.984;2022-07-19T04:45:16;4.72;;;2.75;;
59390;SDS011;53405;57.012;40.984;2022-07-19T04:47:44;7.05;;;3.70;;
59390;SDS011;53405;57.012;40.984;2022-07-19T04:50:11;6.60;;;3.40;;
59390;SDS011;53405;57.012;40.984;2022-07-19T04:52:39;7.95;;;3.50;;
59390;SDS011;53405;57.012;40.984;2022-07-19T04:55:07;7.82;;;3.55;;
59390;SDS011;53405;57.012;40.984;2022-07-19T04:57:36;8.85;;;3.78;;
59390;SDS011;53405;57.012;40.984;2022-07-19T05:00:04;6.70;;;3.88;;
59390;SDS011;53405;57.012;40.984;2022-07-19T05:02:36;6.60;;;3.60;;
59390;SDS011;53405;57.012;40.984;2022-07-19T05:05:04;8.05;;;4.30;;
59390;SDS011;53405;57.012;40.984;2022-07-19T05:07:32;8.45;;;4.40;;
59390;SDS011;53405;57.012;40.984;2022-07-19T05:10:00;7.70;;;4.13;;
59390;SDS011;53405;57.012;40.984;2022-07-19T05:12:28;7.95;;;4.25;;
59390;SDS011;53405;57.012;40.984;2022-07-19T05:14:56;7.13;;;4.47;;
59390;SDS011;53405;57.012;40.984;2022-07-19T05:17:25;7.85;;;5.32;;
59390;SDS011;53405;57.012;40.984;2022-07-19T05:19:52;9.73;;;5.13;;
59390;SDS011;53405;57.012;40.984;2022-07-19T05:22:20;7.93;;;5.40;;
59390;SDS011;53405;57.012;40.984;2022-07-19T05:24:49;9.82;;;5.30;;
59390;SDS011;53405;57.012;40.984;2022-07-19T05:27:18;7.30;;;5.15;;
59390;SDS011;53405;57.012;40.984;2022-07-19T05:29:47;9.18;;;5.32;;
59390;SDS011;53405;57.012;40.984;2022-07-19T05:32:14;7.38;;;5.10;;
59390;SDS011;53405;57.012;40.984;2022-07-19T05:34:42;8.48;;;4.93;;
59390;SDS011;53405;57.012;40.984;2022-07-19T05:37:10;7.85;;;4.97;;
59390;SDS011;53405;57.012;40.984;2022-07-19T05:39:38;7.90;;;4.82;;
59390;SDS011;53405;57.012;40.984;2022-07-19T05:42:06;9.85;;;4.53;;
59390;SDS011;53405;57.012;40.984;2022-07-19T05:44:33;9.15;;;4.50;;
59390;SDS011;53405;57.012;40.984;2022-07-19T05:47:00;10.15;;;4.75;;
59390;SDS011;53405;57.012;40.984;2022-07-19T05:49:28;6.32;;;4.53;;
59390;SDS011;53405;57.012;40.984;2022-07-19T05:51:55;6.70;;;3.80;;
59390;SDS011;53405;57.012;40.984;2022-07-19T05:54:22;6.53;;;4.07;;
59390;SDS011;53405;57.012;40.984;2022-07-19T05:56:50;8.32;;;4.72;;
59390;SDS011;53405;57.012;40.984;2022-07-19T05:59:17;8.10;;;5.20;;
59390;SDS011;53405;57.012;40.984;2022-07-19T06:01:48;8.90;;;4.28;;
59390;SDS011;53405;57.012;40.984;2022-07-19T06:04:16;7.67;;;2.67;;
59390;SDS011;53405;57.012;40.984;2022-07-19T06:06:43;6.38;;;2.95;;
59390;SDS011;53405;57.012;40.984;2022-07-19T06:09:11;6.38;;;2.70;;
59390;SDS011;53405;57.012;40.984;2022-07-19T06:11:39;7.00;;;3.05;;
59390;SDS011;53405;57.012;40.984;2022-07-19T06:14:07;7.30;;;3.42;;
59390;SDS011;53405;57.012;40.984;2022-07-19T06:16:39;7.35;;;3.30;;
59390;SDS011;53405;57.012;40.984;2022-07-19T06:19:08;7.47;;;2.30;;
59390;SDS011;53405;57.012;40.984;2022-07-19T06:21:37;2.80;;;1.77;;
59390;SDS011;53405;57.012;40.984;2022-07-19T06:24:04;2.75;;;1.45;;
59390;SDS011;53405;57.012;40.984;2022-07-19T06:26:32;3.78;;;1.50;;
59390;SDS011;53405;57.012;40.984;2022-07-19T06:28:59;5.18;;;1.50;;
59390;SDS011;53405;57.012;40.984;2022-07-19T06:31:26;5.35;;;1.90;;
59390;SDS011;53405;57.012;40.984;2022-07-19T06:33:54;2.58;;;1.10;;
59390;SDS011;53405;57.012;40.984;2022-07-19T06:36:22;2.75;;;1.10;;
59390;SDS011;53405;57.012;40.984;2022-07-19T06:38:49;3.22;;;1.30;;
59390;SDS011;53405;57.012;40.984;2022-07-19T06:41:17;7.68;;;2.05;;
59390;SDS011;53405;57.012;40.984;2022-07-19T06:43:45;3.47;;;1.65;;
59390;SDS011;53405;57.012;40.984;2022-07-19T06:46:13;3.80;;;1.70;;
59390;SDS011;53405;57.012;40.984;2022-07-19T06:48:41;2.08;;;1.27;;
59390;SDS011;53405;57.012;40.984;2022-07-19T06:51:09;5.07;;;1.52;;
59390;SDS011;53405;57.012;40.984;2022-07-19T06:53:38;5.90;;;2.25;;
59390;SDS011;53405;57.012;40.984;2022-07-19T06:56:05;3.25;;;1.63;;
59390;SDS011;53405;57.012;40.984;2022-07-19T06:58:33;6.40;;;1.83;;
59390;SDS011;53405;57.012;40.984;2022-07-19T07:01:06;5.80;;;1.35;;
59390;SDS011;53405;57.012;40.984;2022-07-19T07:03:35;4.30;;;1.80;;
59390;SDS011;53405;57.012;40.984;2022-07-19T07:06:03;3.58;;;1.13;;
59390;SDS011;53405;57.012;40.984;2022-07-19T07:08:34;5.00;;;1.50;;
59390;SDS011;53405;57.012;40.984;2022-07-19T07:11:01;5.72;;;1.52;;
59390;SDS011;53405;57.012;40.984;2022-07-19T07:13:28;5.32;;;1.08;;
59390;SDS011;53405;57.012;40.984;2022-07-19T07:15:56;1.90;;;1.17;;
59390;SDS011;53405;57.012;40.984;2022-07-19T07:18:28;10.38;;;2.00;;
59390;SDS011;53405;57.012;40.984;2022-07-19T07:20:55;6.15;;;1.60;;
59390;SDS011;53405;57.012;40.984;2022-07-19T07:23:22;4.32;;;1.20;;
59390;SDS011;53405;57.012;40.984;2022-07-19T07:25:51;4.15;;;1.20;;
59390;SDS011;53405;57.012;40.984;2022-07-19T07:28:20;6.60;;;1.35;;
59390;SDS011;53405;57.012;40.984;2022-07-19T07:30:51;3.53;;;1.10;;
59390;SDS011;53405;57.012;40.984;2022-07-19T07:33:19;4.38;;;1.40;;
59390;SDS011;53405;57.012;40.984;2022-07-19T07:35:47;4.30;;;1.00;;
59390;SDS011;53405;57.012;40.984;2022-07-19T07:38:15;5.50;;;1.40;;
59390;SDS011;53405;57.012;40.984;2022-07-19T07:40:43;4.40;;;1.13;;
59390;SDS011;53405;57.012;40.984;2022-07-19T07:43:11;5.35;;;1.20;;
59390;SDS011;53405;57.012;40.984;2022-07-19T07:45:38;5.78;;;1.60;;
59390;SDS011;53405;57.012;40.984;2022-07-19T07:48:06;4.28;;;1.35;;
59390;SDS011;53405;57.012;40.984;2022-07-19T07:50:33;3.92;;;1.73;;
59390;SDS011;53405;57.012;40.984;2022-07-19T07:53:01;5.63;;;1.20;;
59390;SDS011;53405;57.012;40.984;2022-07-19T07:55:33;2.47;;;1.00;;
59390;SDS011;53405;57.012;40.984;2022-07-19T07:58:09;3.03;;;1.10;;
59390;SDS011;53405;57.012;40.984;2022-07-19T08:00:38;3.10;;;1.10;;
59390;SDS011;53405;57.012;40.984;2022-07-19T08:03:07;6.10;;;1.20;;
59390;SDS011;53405;57.012;40.984;2022-07-19T08:05:36;5.60;;;1.10;;
59390;SDS011;53405;57.012;40.984;2022-07-19T08:08:03;5.30;;;1.77;;
59390;SDS011;53405;57.012;40.984;2022-07-19T08:10:31;4.38;;;1.00;;
59390;SDS011;53405;57.012;40.984;2022-07-19T08:13:00;5.45;;;1.42;;
59390;SDS011;53405;57.012;40.984;2022-07-19T08:15:31;4.38;;;1.10;;
59390;SDS011;53405;57.012;40.984;2022-07-19T08:18:02;3.67;;;1.10;;
59390;SDS011;53405;57.012;40.984;2022-07-19T08:20:30;5.57;;;1.15;;
59390;SDS011;53405;57.012;40.984;2022-07-19T08:22:58;6.32;;;1.00;;
59390;SDS011;53405;57.012;40.984;2022-07-19T08:25:25;1.65;;;0.90;;
59390;SDS011;53405;57.012;40.984;2022-07-19T08:27:53;2.80;;;1.08;;
59390;SDS011;53405;57.012;40.984;2022-07-19T08:30:22;8.68;;;1.10;;
59390;SDS011;53405;57.012;40.984;2022-07-19T08:32:55;4.47;;;1.30;;
59390;SDS011;53405;57.012;40.984;2022-07-19T08:35:30;2.38;;;1.02;;
59390;SDS011;53405;57.012;40.984;2022-07-19T08:37:57;6.43;;;1.55;;
59390;SDS011;53405;57.012;40.984;2022-07-19T08:40:25;4.97;;;1.77;;
59390;SDS011;53405;57.012;40.984;2022-07-19T08:42:55;3.17;;;0.90;;
59390;SDS011;53405;57.012;40.984;2022-07-19T08:45:24;3.70;;;1.02;;
59390;SDS011;53405;57.012;40.984;2022-07-19T08:47:56;6.80;;;2.88;;
59390;SDS011;53405;57.012;40.984;2022-07-19T08:50:25;4.68;;;2.20;;
59390;SDS011;53405;57.012;40.984;2022-07-19T08:52:53;4.45;;;1.10;;
59390;SDS011;53405;57.012;40.984;2022-07-19T08:55:21;4.25;;;1.08;;
59390;SDS011;53405;57.012;40.984;2022-07-19T08:57:49;4.22;;;1.20;;
59390;SDS011;53405;57.012;40.984;2022-07-19T09:00:28;2.72;;;1.13;;
59390;SDS011;53405;57.012;40.984;2022-07-19T09:02:59;3.85;;;1.10;;
59390;SDS011;53405;57.012;40.984;2022-07-19T09:05:28;3.65;;;1.10;;
59390;SDS011;53405;57.012;40.984;2022-07-19T09:08:14;2.08;;;1.10;;
59390;SDS011;53405;57.012;40.984;2022-07-19T09:10:47;3.13;;;0.90;;
59390;SDS011;53405;57.012;40.984;2022-07-19T09:13:35;3.83;;;0.98;;
59390;SDS011;53405;57.012;40.984;2022-07-19T09:16:03;3.05;;;1.10;;
59390;SDS011;53405;57.012;40.984;2022-07-19T09:18:33;4.45;;;1.35;;
59390;SDS011;53405;57.012;40.984;2022-07-19T09:21:05;3.88;;;0.90;;
59390;SDS011;53405;57.012;40.984;2022-07-19T09:23:35;3.55;;;1.20;;
59390;SDS011;53405;57.012;40.984;2022-07-19T09:26:08;3.15;;;1.30;;
59390;SDS011;53405;57.012;40.984;2022-07-19T09:28:36;4.35;;;1.15;;
59390;SDS011;53405;57.012;40.984;2022-07-19T09:31:04;2.55;;;1.05;;
59390;SDS011;53405;57.012;40.984;2022-07-19T09:33:32;3.47;;;1.10;;
59390;SDS011;53405;57.012;40.984;2022-07-19T09:36:04;3.03;;;0.98;;
59390;SDS011;53405;57.012;40.984;2022-07-19T09:38:39;4.80;;;1.40;;
59390;SDS011;53405;57.012;40.984;2022-07-19T09:41:18;3.53;;;1.63;;
59390;SDS011;53405;57.012;40.984;2022-07-19T09:46:39;4.28;;;1.58;;
59390;SDS011;53405;57.012;40.984;2022-07-19T09:49:11;3.35;;;1.45;;
59390;SDS011;53405;57.012;40.984;2022-07-19T09:51:43;4.30;;;1.30;;
59390;SDS011;53405;57.012;40.984;2022-07-19T09:54:13;2.28;;;1.00;;
59390;SDS011;53405;57.012;40.984;2022-07-19T09:56:48;3.70;;;1.13;;
59390;SDS011;53405;57.012;40.984;2022-07-19T10:01:48;2.40;;;0.90;;
59390;SDS011;53405;57.012;40.984;2022-07-19T10:04:18;3.28;;;1.40;;
59390;SDS011;53405;57.012;40.984;2022-07-19T10:06:50;3.20;;;1.30;;
59390;SDS011;53405;57.012;40.984;2022-07-19T10:11:51;4.38;;;2.20;;
59390;SDS011;53405;57.012;40.984;2022-07-19T10:14:20;4.82;;;1.60;;
59390;SDS011;53405;57.012;40.984;2022-07-19T10:22:22;7.80;;;2.50;;
59390;SDS011;53405;57.012;40.984;2022-07-19T10:24:54;8.82;;;1.67;;
59390;SDS011;53405;57.012;40.984;2022-07-19T10:30:15;8.23;;;2.40;;
59390;SDS011;53405;57.012;40.984;2022-07-19T10:32:41;4.55;;;2.10;;
59390;SDS011;53405;57.012;40.984;2022-07-19T10:40:41;5.13;;;1.60;;
59390;SDS011;53405;57.012;40.984;2022-07-19T10:43:10;3.30;;;1.40;;
59390;SDS011;53405;57.012;40.984;2022-07-19T10:45:40;4.90;;;1.90;;
59390;SDS011;53405;57.012;40.984;2022-07-19T10:48:37;2.95;;;1.48;;
59390;SDS011;53405;57.012;40.984;2022-07-19T10:51:10;4.10;;;1.50;;
59390;SDS011;53405;57.012;40.984;2022-07-19T10:56:20;3.92;;;1.40;;
59390;SDS011;53405;57.012;40.984;2022-07-19T10:58:52;2.70;;;1.00;;
59390;SDS011;53405;57.012;40.984;2022-07-19T11:01:20;3.08;;;1.15;;
59390;SDS011;53405;57.012;40.984;2022-07-19T11:03:50;4.15;;;1.70;;
59390;SDS011;53405;57.012;40.984;2022-07-19T11:06:24;2.05;;;1.23;;
59390;SDS011;53405;57.012;40.984;2022-07-19T11:08:56;4.40;;;1.20;;
59390;SDS011;53405;57.012;40.984;2022-07-19T11:11:26;4.25;;;1.30;;
59390;SDS011;53405;57.012;40.984;2022-07-19T11:13:55;7.93;;;3.15;;
59390;SDS011;53405;57.012;40.984;2022-07-19T11:16:27;6.38;;;2.30;;
59390;SDS011;53405;57.012;40.984;2022-07-19T11:19:05;10.20;;;2.70;;
59390;SDS011;53405;57.012;40.984;2022-07-19T11:21:36;3.15;;;2.03;;
59390;SDS011;53405;57.012;40.984;2022-07-19T11:24:07;5.10;;;2.38;;
59390;SDS011;53405;57.012;40.984;2022-07-19T11:26:45;4.05;;;2.45;;
59390;SDS011;53405;57.012;40.984;2022-07-19T11:29:13;5.47;;;2.67;;
59390;SDS011;53405;57.012;40.984;2022-07-19T11:31:46;3.83;;;1.33;;
59390;SDS011;53405;57.012;40.984;2022-07-19T11:34:20;3.17;;;1.58;;
59390;SDS011;53405;57.012;40.984;2022-07-19T11:36:58;5.80;;;1.70;;
59390;SDS011;53405;57.012;40.984;2022-07-19T11:39:25;4.28;;;1.60;;
59390;SDS011;53405;57.012;40.984;2022-07-19T11:42:28;6.13;;;1.80;;
59390;SDS011;53405;57.012;40.984;2022-07-19T11:45:15;8.18;;;1.88;;
59390;SDS011;53405;57.012;40.984;2022-07-19T11:47:48;5.90;;;1.98;;
59390;SDS011;53405;57.012;40.984;2022-07-19T11:50:21;5.47;;;2.08;;
59390;SDS011;53405;57.012;40.984;2022-07-19T11:52:56;5.53;;;2.70;;
59390;SDS011;53405;57.012;40.984;2022-07-19T11:55:26;4.57;;;2.10;;
59390;SDS011;53405;57.012;40.984;2022-07-19T11:58:06;3.80;;;2.30;;
59390;SDS011;53405;57.012;40.984;2022-07-19T12:00:34;5.70;;;2.60;;
59390;SDS011;53405;57.012;40.984;2022-07-19T12:03:03;4.78;;;2.28;;
59390;SDS011;53405;57.012;40.984;2022-07-19T12:05:34;4.00;;;2.15;;
59390;SDS011;53405;57.012;40.984;2022-07-19T12:08:04;7.90;;;2.20;;
59390;SDS011;53405;57.012;40.984;2022-07-19T12:10:46;12.77;;;2.22;;
59390;SDS011;53405;57.012;40.984;2022-07-19T12:16:07;5.60;;;1.88;;
59390;SDS011;53405;57.012;40.984;2022-07-19T12:18:42;6.55;;;2.72;;
59390;SDS011;53405;57.012;40.984;2022-07-19T12:21:23;7.22;;;2.40;;
59390;SDS011;53405;57.012;40.984;2022-07-19T12:29:24;6.93;;;2.00;;
59390;SDS011;53405;57.012;40.984;2022-07-19T12:34:20;6.20;;;2.63;;
59390;SDS011;53405;57.012;40.984;2022-07-19T12:36:48;5.63;;;2.08;;
59390;SDS011;53405;57.012;40.984;2022-07-19T12:39:27;6.35;;;2.75;;
59390;SDS011;53405;57.012;40.984;2022-07-19T12:41:59;6.88;;;2.90;;
59390;SDS011;53405;57.012;40.984;2022-07-19T12:44:33;6.07;;;2.90;;
59390;SDS011;53405;57.012;40.984;2022-07-19T12:47:01;7.95;;;3.70;;
59390;SDS011;53405;57.012;40.984;2022-07-19T12:49:49;11.85;;;4.20;;
59390;SDS011;53405;57.012;40.984;2022-07-19T12:52:19;10.75;;;3.72;;
59390;SDS011;53405;57.012;40.984;2022-07-19T12:54:50;10.85;;;3.83;;
59390;SDS011;53405;57.012;40.984;2022-07-19T12:57:22;8.85;;;3.90;;
59390;SDS011;53405;57.012;40.984;2022-07-19T12:59:50;6.68;;;3.40;;
59390;SDS011;53405;57.012;40.984;2022-07-19T13:02:17;9.32;;;3.40;;
59390;SDS011;53405;57.012;40.984;2022-07-19T13:04:45;7.72;;;3.28;;
59390;SDS011;53405;57.012;40.984;2022-07-19T13:07:13;7.65;;;3.40;;
59390;SDS011;53405;57.012;40.984;2022-07-19T13:09:43;7.18;;;4.00;;
59390;SDS011;53405;57.012;40.984;2022-07-19T13:12:11;8.07;;;3.70;;
59390;SDS011;53405;57.012;40.984;2022-07-19T13:14:38;7.32;;;2.90;;
59390;SDS011;53405;57.012;40.984;2022-07-19T13:17:06;5.53;;;2.92;;
59390;SDS011;53405;57.012;40.984;2022-07-19T13:19:38;6.43;;;3.03;;
59390;SDS011;53405;57.012;40.984;2022-07-19T13:22:06;5.43;;;3.03;;
59390;SDS011;53405;57.012;40.984;2022-07-19T13:24:33;5.75;;;3.13;;
59390;SDS011;53405;57.012;40.984;2022-07-19T13:27:24;8.88;;;2.70;;
59390;SDS011;53405;57.012;40.984;2022-07-19T13:29:52;5.03;;;3.00;;
59390;SDS011;53405;57.012;40.984;2022-07-19T13:32:20;7.43;;;3.42;;
59390;SDS011;53405;57.012;40.984;2022-07-19T13:34:47;5.30;;;2.88;;
59390;SDS011;53405;57.012;40.984;2022-07-19T13:37:14;7.00;;;4.07;;
59390;SDS011;53405;57.012;40.984;2022-07-19T13:39:41;8.32;;;3.30;;
59390;SDS011;53405;57.012;40.984;2022-07-19T13:42:09;6.78;;;2.75;;
59390;SDS011;53405;57.012;40.984;2022-07-19T13:44:36;5.15;;;2.60;;
59390;SDS011;53405;57.012;40.984;2022-07-19T13:47:04;3.88;;;2.20;;
59390;SDS011;53405;57.012;40.984;2022-07-19T13:49:31;5.35;;;2.22;;
59390;SDS011;53405;57.012;40.984;2022-07-19T13:51:59;5.15;;;2.33;;
59390;SDS011;53405;57.012;40.984;2022-07-19T13:54:27;6.80;;;2.83;;
59390;SDS011;53405;57.012;40.984;2022-07-19T13:56:54;5.30;;;2.50;;
59390;SDS011;53405;57.012;40.984;2022-07-19T13:59:21;3.63;;;2.10;;
59390;SDS011;53405;57.012;40.984;2022-07-19T14:01:49;6.75;;;2.50;;
59390;SDS011;53405;57.012;40.984;2022-07-19T14:04:16;5.40;;;1.98;;
59390;SDS011;53405;57.012;40.984;2022-07-19T14:06:48;8.95;;;2.60;;
59390;SDS011;53405;57.012;40.984;2022-07-19T14:09:16;4.50;;;2.28;;
59390;SDS011;53405;57.012;40.984;2022-07-19T14:11:43;3.10;;;1.92;;
59390;SDS011;53405;57.012;40.984;2022-07-19T14:14:11;6.70;;;2.10;;
59390;SDS011;53405;57.012;40.984;2022-07-19T14:16:39;3.88;;;2.33;;
59390;SDS011;53405;57.012;40.984;2022-07-19T14:19:08;6.07;;;2.20;;
59390;SDS011;53405;57.012;40.984;2022-07-19T14:21:35;3.72;;;2.30;;
59390;SDS011;53405;57.012;40.984;2022-07-19T14:24:03;3.65;;;1.85;;
59390;SDS011;53405;57.012;40.984;2022-07-19T14:26:30;3.30;;;1.95;;
59390;SDS011;53405;57.012;40.984;2022-07-19T14:28:58;5.18;;;2.40;;
59390;SDS011;53405;57.012;40.984;2022-07-19T14:31:25;6.00;;;3.22;;
59390;SDS011;53405;57.012;40.984;2022-07-19T14:33:53;5.63;;;2.08;;
59390;SDS011;53405;57.012;40.984;2022-07-19T14:36:32;3.00;;;1.83;;
59390;SDS011;53405;57.012;40.984;2022-07-19T14:39:00;3.67;;;1.90;;
59390;SDS011;53405;57.012;40.984;2022-07-19T14:41:28;3.63;;;1.88;;
59390;SDS011;53405;57.012;40.984;2022-07-19T14:46:25;6.63;;;1.90;;
59390;SDS011;53405;57.012;40.984;2022-07-19T14:48:52;5.13;;;1.88;;
59390;SDS011;53405;57.012;40.984;2022-07-19T14:51:23;7.63;;;1.90;;
59390;SDS011;53405;57.012;40.984;2022-07-19T14:53:51;5.32;;;2.03;;
59390;SDS011;53405;57.012;40.984;2022-07-19T14:56:18;7.10;;;2.17;;
59390;SDS011;53405;57.012;40.984;2022-07-19T14:58:46;4.60;;;2.15;;
59390;SDS011;53405;57.012;40.984;2022-07-19T15:01:26;5.70;;;1.88;;
59390;SDS011;53405;57.012;40.984;2022-07-19T15:03:53;3.95;;;1.60;;
59390;SDS011;53405;57.012;40.984;2022-07-19T15:06:27;6.30;;;1.80;;
59390;SDS011;53405;57.012;40.984;2022-07-19T15:08:56;3.75;;;1.45;;
59390;SDS011;53405;57.012;40.984;2022-07-19T15:11:23;2.95;;;1.58;;
59390;SDS011;53405;57.012;40.984;2022-07-19T15:13:51;5.70;;;1.70;;
59390;SDS011;53405;57.012;40.984;2022-07-19T15:16:19;4.85;;;2.15;;
59390;SDS011;53405;57.012;40.984;2022-07-19T15:18:47;5.78;;;1.85;;
59390;SDS011;53405;57.012;40.984;2022-07-19T15:21:14;4.18;;;1.60;;
59390;SDS011;53405;57.012;40.984;2022-07-19T15:23:42;10.95;;;5.43;;
59390;SDS011;53405;57.012;40.984;2022-07-19T15:26:10;9.77;;;6.15;;